Time;durP1;ratioP1;P1;durP2;ratioP2;P2;SDS_P1;SDS_P2;PMS_P1;PMS_P2;Temp;Humidity;BMP_temperature;BMP_pressure;BME280_temperature;BME280_humidity;BME280_pressure;Samples;Min_cycle;Max_cycle;Signal;HPM_P1;HPM_P2
2021/01/17 16:02:24;;;;;;;74.55;25.50;;;;;;;-16.53;74.90;99361.94;1804531;78;22516;-67
2021/01/17 16:04:51;;;;;;;166.00;47.83;;;;;;;-16.42;74.76;99369.47;1761310;79;21496;-66
2021/01/17 16:07:18;;;;;;;147.98;45.48;;;;;;;-16.02;73.97;99366.91;1695789;83;21312;-66
2021/01/17 16:09:46;;;;;;;111.30;38.33;;;;;;;-15.74;73.30;99372.77;1699260;84;21190;-66
2021/01/17 16:12:13;;;;;;;80.87;30.37;;;;;;;-15.51;72.98;99364.94;1712766;83;21135;-67
2021/01/17 16:14:42;;;;;;;75.70;28.50;;;;;;;-15.25;72.72;99353.37;1711594;83;21741;-67
2021/01/17 16:17:10;;;;;;;71.90;26.97;;;;;;;-15.05;72.38;99347.17;1723916;83;21182;-67
2021/01/17 16:19:38;;;;;;;69.05;26.30;;;;;;;-14.85;72.09;99358.23;1726194;82;21173;-66
2021/01/17 16:22:05;;;;;;;71.67;28.42;;;;;;;-14.70;71.76;99356.08;1708925;82;21797;-67
2021/01/17 16:24:32;;;;;;;80.90;28.12;;;;;;;-14.58;71.37;99353.36;1707360;83;21161;-67
2021/01/17 16:27:02;;;;;;;76.67;27.52;;;;;;;-14.48;71.06;99351.49;1712984;83;21351;-67
2021/01/17 16:29:29;;;;;;;58.58;23.90;;;;;;;-14.43;70.86;99360.08;1719122;82;21607;-67
2021/01/17 16:31:57;;;;;;;61.30;25.10;;;;;;;-14.37;70.63;99359.35;1722605;82;21158;-66
2021/01/17 16:34:25;;;;;;;55.75;23.27;;;;;;;-14.28;70.29;99356.17;1701479;84;21206;-66
2021/01/17 16:36:54;;;;;;;59.13;23.20;;;;;;;-14.23;70.19;99357.13;1717258;82;21234;-66
2021/01/17 16:39:21;;;;;;;55.75;23.12;;;;;;;-14.17;70.08;99352.20;1716216;82;21323;-67
2021/01/17 16:41:48;;;;;;;59.08;23.90;;;;;;;-14.11;69.96;99352.77;1726012;83;21170;-66
2021/01/17 16:44:15;;;;;;;62.08;23.98;;;;;;;-14.10;69.62;99350.65;1724289;82;21153;-66
2021/01/17 16:46:42;;;;;;;58.13;23.20;;;;;;;-14.10;69.14;99359.15;1714297;83;21214;-67
2021/01/17 16:49:10;;;;;;;47.95;20.02;;;;;;;-14.07;68.97;99352.00;1699129;84;21195;-67
2021/01/17 16:51:39;;;;;;;56.30;23.27;;;;;;;-14.05;68.82;99351.61;1707326;83;21779;-66
2021/01/17 16:54:07;;;;;;;55.85;20.97;;;;;;;-14.05;68.54;99347.41;1718315;82;21158;-67
2021/01/17 16:56:34;;;;;;;53.40;19.50;;;;;;;-14.08;68.57;99350.28;1731694;83;21606;-67
2021/01/17 16:59:03;;;;;;;53.95;19.82;;;;;;;-14.06;68.52;99349.48;1701378;84;21353;-67
2021/01/17 17:01:42;;;;;;;42.05;17.77;;;;;;;-14.03;68.39;99353.36;1685642;83;21187;-67
2021/01/17 17:04:10;;;;;;;46.77;19.10;;;;;;;-14.03;68.34;99362.25;1746960;82;21178;-67
2021/01/17 17:06:38;;;;;;;51.37;18.95;;;;;;;-14.02;68.34;99369.06;1743552;81;21170;-68
2021/01/17 17:09:06;;;;;;;46.58;18.67;;;;;;;-13.97;68.38;99364.09;1751065;81;21166;-68
2021/01/17 17:11:34;;;;;;;55.15;20.23;;;;;;;-13.93;68.31;99361.20;1745313;81;21160;-68
2021/01/17 17:14:02;;;;;;;55.45;18.52;;;;;;;-13.97;68.26;99363.24;1751881;82;21757;-68
2021/01/17 17:16:32;;;;;;;49.85;20.45;;;;;;;-13.98;68.18;99366.17;1737780;81;21181;-67
2021/01/17 17:19:00;;;;;;;51.40;20.27;;;;;;;-13.97;68.14;99369.59;1762332;80;21196;-67
2021/01/17 17:21:33;;;;;;;43.83;19.25;;;;;;;-13.90;68.17;99377.39;1716561;83;21183;-67
2021/01/17 17:24:03;;;;;;;39.15;16.97;;;;;;;-13.76;67.98;99376.39;1656057;84;21332;-68
2021/01/17 17:26:37;;;;;;;39.58;16.27;;;;;;;-13.70;67.83;99372.71;1683373;84;21360;-67
2021/01/17 17:29:09;;;;;;;;;;;;;;;-13.64;67.66;99386.38;1744261;81;21114;-68
2021/01/17 17:31:54;;;;;;;35.45;15.23;;;;;;;-13.64;67.63;99387.66;1731176;81;20284;-68
2021/01/17 17:34:22;;;;;;;37.58;14.68;;;;;;;-13.59;67.26;99396.23;1759318;81;21238;-67
2021/01/17 17:36:50;;;;;;;36.55;15.95;;;;;;;-13.68;67.14;99388.88;1739745;81;21157;-67
2021/01/17 17:39:19;;;;;;;41.85;17.62;;;;;;;-13.72;67.12;99392.58;1748009;81;21190;-67
2021/01/17 17:41:49;;;;;;;35.90;16.70;;;;;;;-13.71;66.94;99394.30;1755854;81;21579;-67
2021/01/17 17:44:17;;;;;;;43.23;17.75;;;;;;;-13.68;66.59;99399.05;1742253;81;21172;-68
2021/01/17 17:46:47;;;;;;;34.43;15.32;;;;;;;-13.74;66.29;99388.73;1725015;82;21319;-67
2021/01/17 17:49:15;;;;;;;28.52;13.53;;;;;;;-13.85;66.17;99395.27;1742275;81;21150;-68
2021/01/17 17:51:49;;;;;;;35.38;15.75;;;;;;;-13.94;66.36;99405.23;1755890;81;21106;-68
2021/01/17 17:54:16;;;;;;;29.72;12.65;;;;;;;-13.98;66.21;99398.37;1754401;81;21505;-67
2021/01/17 17:56:43;;;;;;;35.70;15.20;;;;;;;-14.07;66.12;99399.86;1746530;81;21177;-68
2021/01/17 17:59:10;;;;;;;34.43;15.70;;;;;;;-14.20;66.29;99402.96;1731908;81;21201;-68
2021/01/17 18:01:42;;;;;;;31.33;15.25;;;;;;;-14.34;66.41;99400.09;1748992;81;21852;-67
2021/01/17 18:04:10;;;;;;;36.33;14.15;;;;;;;-14.46;66.48;99407.00;1741766;82;21186;-67
2021/01/17 18:06:37;;;;;;;33.35;13.98;;;;;;;-14.57;66.67;99416.88;1716056;81;21341;-67
2021/01/17 18:09:05;;;;;;;30.27;12.78;;;;;;;-14.63;66.75;99409.52;1733978;81;21321;-68
2021/01/17 18:11:32;;;;;;;30.15;12.85;;;;;;;-14.68;66.81;99399.27;1746786;82;21170;-67
2021/01/17 18:13:59;;;;;;;27.10;12.00;;;;;;;-14.68;66.84;99401.81;1723819;81;21187;-67
2021/01/17 18:16:27;;;;;;;30.43;14.30;;;;;;;-14.67;66.79;99400.58;1710348;83;21310;-67
2021/01/17 18:18:55;;;;;;;24.20;12.25;;;;;;;-14.63;66.60;99403.18;1742391;81;21330;-67
2021/01/17 18:21:22;;;;;;;28.83;12.68;;;;;;;-14.70;66.42;99393.31;1707649;84;21345;-68
2021/01/17 18:23:49;;;;;;;31.07;13.45;;;;;;;-14.77;66.33;99396.08;1750465;81;21171;-67
2021/01/17 18:26:17;;;;;;;32.08;14.55;;;;;;;-14.82;66.55;99401.88;1741537;81;21172;-67
2021/01/17 18:28:44;;;;;;;32.25;15.15;;;;;;;-14.88;66.53;99404.70;1749917;81;21194;-68
2021/01/17 18:31:11;;;;;;;31.73;13.72;;;;;;;-14.89;66.54;99412.28;1740869;81;21188;-67
2021/01/17 18:33:38;;;;;;;28.62;12.65;;;;;;;-14.96;66.49;99419.27;1711164;83;21326;-68
2021/01/17 18:36:07;;;;;;;29.98;13.90;;;;;;;-15.03;66.49;99415.30;1732093;81;21312;-66
2021/01/17 18:38:34;;;;;;;26.80;12.33;;;;;;;-15.07;66.50;99431.27;1728116;81;21318;-67
2021/01/17 18:41:01;;;;;;;30.27;13.58;;;;;;;-15.05;66.48;99423.69;1737813;81;21194;-67
2021/01/17 18:43:28;;;;;;;28.45;11.55;;;;;;;-14.99;66.44;99423.86;1712397;83;21200;-67
2021/01/17 18:45:55;;;;;;;21.35;10.13;;;;;;;-14.90;66.33;99428.33;1751176;81;21136;-67
2021/01/17 18:48:23;;;;;;;22.05;11.35;;;;;;;-14.85;66.03;99435.66;1739840;81;21146;-67
2021/01/17 18:50:50;;;;;;;22.32;10.50;;;;;;;-14.80;65.89;99445.52;1729275;82;21170;-67
2021/01/17 18:53:18;;;;;;;27.27;12.85;;;;;;;-14.73;65.79;99444.00;1697473;83;21128;-67
2021/01/17 18:55:45;;;;;;;25.60;11.05;;;;;;;-14.70;65.67;99445.36;1733486;82;21308;-67
2021/01/17 18:58:12;;;;;;;22.30;10.70;;;;;;;-14.66;65.62;99440.80;1709118;83;21167;-67
2021/01/17 19:00:39;;;;;;;21.50;10.20;;;;;;;-14.59;65.70;99443.05;1750449;82;21731;-67
2021/01/17 19:03:09;;;;;;;28.45;11.80;;;;;;;-14.54;65.72;99443.64;1716859;83;21200;-67
2021/01/17 19:05:36;;;;;;;23.47;11.08;;;;;;;-14.46;65.73;99450.19;1724116;81;21242;-67
2021/01/17 19:08:07;;;;;;;35.25;13.40;;;;;;;-14.42;65.81;99462.52;1750736;81;21285;-66
2021/01/17 19:10:35;;;;;;;27.40;12.05;;;;;;;-14.41;65.80;99465.13;1745486;81;21457;-67
2021/01/17 19:13:02;;;;;;;26.95;11.57;;;;;;;-14.43;65.73;99468.45;1707170;83;21183;-66
2021/01/17 19:15:30;;;;;;;27.67;13.00;;;;;;;-14.49;65.72;99466.59;1753213;81;21140;-67
2021/01/17 19:17:58;;;;;;;28.77;14.28;;;;;;;-14.60;65.58;99466.72;1749560;81;21291;-67
2021/01/17 19:20:25;;;;;;;36.68;14.68;;;;;;;-14.62;65.63;99470.92;1752645;81;21321;-67
2021/01/17 19:22:52;;;;;;;26.33;13.15;;;;;;;-14.65;65.61;99470.85;1720412;83;21198;-67
2021/01/17 19:25:19;;;;;;;37.42;16.35;;;;;;;-14.68;65.79;99473.78;1745477;81;21546;-67
2021/01/17 19:27:47;;;;;;;39.78;15.15;;;;;;;-14.68;65.74;99471.23;1706834;83;21587;-67
2021/01/17 19:30:15;;;;;;;36.30;15.85;;;;;;;-14.64;65.71;99472.58;1751683;81;21321;-67
2021/01/17 19:32:44;;;;;;;29.25;13.80;;;;;;;-14.57;65.62;99474.44;1746671;81;21646;-67
2021/01/17 19:35:12;;;;;;;29.07;13.28;;;;;;;-14.52;65.48;99479.23;1756988;81;21144;-68
2021/01/17 19:37:39;;;;;;;26.37;12.20;;;;;;;-14.48;65.47;99478.90;1756147;81;21158;-67
2021/01/17 19:40:09;;;;;;;38.58;15.05;;;;;;;-14.46;65.48;99478.13;1731903;81;21297;-67
2021/01/17 19:42:37;;;;;;;28.77;13.00;;;;;;;-14.47;65.38;99482.74;1751696;82;21556;-67
2021/01/17 19:45:06;;;;;;;31.97;13.85;;;;;;;-14.44;66.25;99479.42;1749918;81;21163;-68
2021/01/17 19:47:34;;;;;;;23.10;11.63;;;;;;;-14.42;66.11;99484.99;1751796;81;21203;-67
2021/01/17 19:50:01;;;;;;;27.67;12.80;;;;;;;-14.40;65.95;99480.79;1746661;81;21318;-68
2021/01/17 19:52:29;;;;;;;35.03;17.37;;;;;;;-14.42;65.94;99483.72;1722683;83;21152;-68
2021/01/17 19:54:56;;;;;;;38.23;17.17;;;;;;;-14.43;65.95;99479.45;1719928;83;21611;-67
2021/01/17 19:57:24;;;;;;;42.73;17.35;;;;;;;-14.44;66.03;99482.81;1696003;83;21320;-68
2021/01/17 19:59:51;;;;;;;45.80;19.17;;;;;;;-14.30;66.64;99477.23;1685788;84;21165;-68
2021/01/17 20:02:19;;;;;;;44.05;17.23;;;;;;;-14.27;66.15;99487.46;1694461;84;21341;-67
2021/01/17 20:04:48;;;;;;;39.80;18.92;;;;;;;-14.29;65.95;99485.28;1687610;83;21336;-68
2021/01/17 20:07:18;;;;;;;59.05;22.22;;;;;;;-14.29;65.85;99495.45;1724195;82;21209;-67
2021/01/17 20:09:46;;;;;;;123.35;39.15;;;;;;;-14.28;65.73;99488.28;1732993;82;21166;-68
2021/01/17 20:12:13;;;;;;;114.97;36.77;;;;;;;-14.24;65.86;99492.22;1735413;81;21171;-68
2021/01/17 20:14:41;;;;;;;98.37;34.10;;;;;;;-14.21;65.64;99487.62;1743391;81;21588;-68
2021/01/17 20:17:10;;;;;;;65.25;26.37;;;;;;;-14.21;65.66;99490.16;1732864;81;21730;-67
2021/01/17 20:19:37;;;;;;;60.08;24.32;;;;;;;-14.22;65.68;99502.41;1716247;83;21190;-68
2021/01/17 20:22:05;;;;;;;49.08;20.72;;;;;;;-14.22;65.90;99494.40;1723588;82;21173;-69
2021/01/17 20:24:32;;;;;;;38.02;15.60;;;;;;;-14.21;65.90;99496.09;1737303;81;21203;-69
2021/01/17 20:26:59;;;;;;;38.75;15.78;;;;;;;-14.15;65.91;99490.71;1737762;82;22027;-67
2021/01/17 20:29:27;;;;;;;55.70;20.97;;;;;;;-14.19;65.82;99505.89;1732365;81;21301;-67
2021/01/17 20:31:55;;;;;;;42.65;19.35;;;;;;;-14.21;65.99;99490.16;1705684;83;21200;-69
2021/01/17 20:34:22;;;;;;;31.60;14.47;;;;;;;-14.22;65.95;99499.88;1743874;81;21176;-68
2021/01/17 20:36:49;;;;;;;32.20;14.80;;;;;;;-14.23;65.86;99499.02;1694830;83;21603;-69
2021/01/17 20:39:18;;;;;;;29.07;13.20;;;;;;;-14.24;65.91;99502.80;1738215;82;21296;-68
2021/01/17 20:41:46;;;;;;;31.68;14.95;;;;;;;-14.25;66.01;99495.58;1735049;81;21649;-68
2021/01/17 20:44:15;;;;;;;29.87;11.70;;;;;;;-14.23;66.11;99504.50;1704298;84;21139;-68
2021/01/17 20:46:42;;;;;;;33.90;14.13;;;;;;;-14.20;66.33;99500.78;1736103;81;22229;-68
2021/01/17 20:49:10;;;;;;;26.27;13.60;;;;;;;-14.27;66.24;99502.31;1704319;84;21336;-68
2021/01/17 20:51:37;;;;;;;30.15;12.47;;;;;;;-14.24;66.42;99514.23;1736158;81;21184;-67
2021/01/17 20:54:04;;;;;;;31.20;12.50;;;;;;;-14.19;66.55;99501.23;1747642;82;21642;-68
2021/01/17 20:56:31;;;;;;;31.45;12.90;;;;;;;-14.11;66.71;99502.27;1741240;81;21162;-67
2021/01/17 20:58:59;;;;;;;29.60;11.95;;;;;;;-14.06;66.69;99505.79;1727346;82;21603;-68
2021/01/17 21:01:26;;;;;;;24.25;12.60;;;;;;;-14.01;66.84;99518.63;1718604;81;21321;-68
2021/01/17 21:03:53;;;;;;;34.50;14.35;;;;;;;-14.08;66.66;99489.63;1669882;84;21194;-67
2021/01/17 21:06:21;;;;;;;29.67;13.62;;;;;;;-13.89;66.67;99528.22;1706075;83;21589;-67
2021/01/17 21:08:48;;;;;;;32.63;14.80;;;;;;;-13.86;66.58;99520.27;1688051;82;21208;-67
2021/01/17 21:11:17;;;;;;;28.57;12.63;;;;;;;-13.84;66.52;99517.75;1713853;83;21658;-67
2021/01/17 21:13:47;;;;;;;26.50;12.85;;;;;;;-13.73;66.45;99515.06;1699247;82;21313;-69
2021/01/17 21:16:15;;;;;;;27.55;11.73;;;;;;;-13.61;66.26;99514.91;1699877;83;21339;-67
2021/01/17 21:18:43;;;;;;;25.70;10.95;;;;;;;-13.48;66.14;99517.31;1694962;84;21396;-67
2021/01/17 21:21:12;;;;;;;23.15;10.03;;;;;;;-13.41;65.96;99520.42;1723517;82;21460;-67
2021/01/17 21:23:45;;;;;;;20.55;9.83;;;;;;;-13.37;65.52;99523.08;1721232;83;21144;-68
2021/01/17 21:26:17;;;;;;;26.68;11.53;;;;;;;-13.36;65.17;99516.27;1706017;82;21191;-68
2021/01/17 21:28:47;;;;;;;27.22;10.82;;;;;;;-13.36;65.22;99518.41;1709915;83;21191;-68
2021/01/17 21:31:16;;;;;;;20.25;10.35;;;;;;;-13.31;65.02;99518.92;1701749;82;21324;-68
2021/01/17 21:33:45;;;;;;;29.25;12.15;;;;;;;-13.35;64.86;99515.05;1717783;83;21267;-68
2021/01/17 21:36:16;;;;;;;21.07;9.70;;;;;;;-13.32;64.52;99520.62;1706813;82;21358;-67
2021/01/17 21:38:47;;;;;;;23.00;10.00;;;;;;;-13.36;64.50;99515.87;1692712;82;21592;-68
2021/01/17 21:41:15;;;;;;;23.45;10.68;;;;;;;-13.38;64.36;99507.36;1700909;84;21344;-68
2021/01/17 21:43:42;;;;;;;21.73;9.73;;;;;;;-13.40;64.47;99515.78;1694273;82;21592;-69
2021/01/17 21:46:15;;;;;;;22.45;9.83;;;;;;;-13.40;64.36;99501.40;1702668;83;21316;-68
2021/01/17 21:48:42;;;;;;;23.27;9.48;;;;;;;-13.45;64.32;99510.62;1676784;84;21776;-68
2021/01/17 21:51:10;;;;;;;22.98;11.25;;;;;;;-13.49;64.51;99500.33;1662918;84;21207;-67
2021/01/17 21:53:38;;;;;;;23.42;9.55;;;;;;;-13.49;64.56;99493.54;1659516;84;21688;-67
2021/01/17 21:56:06;;;;;;;23.35;9.75;;;;;;;-13.51;64.35;99490.13;1648304;86;21351;-67
2021/01/17 21:58:33;;;;;;;19.42;8.90;;;;;;;-13.56;64.32;99489.16;1707502;83;21160;-68
2021/01/17 22:01:01;;;;;;;21.37;8.95;;;;;;;-13.59;64.16;99489.95;1706159;83;21779;-67
2021/01/17 22:03:31;;;;;;;23.87;9.88;;;;;;;-13.66;64.29;99488.51;1734048;82;21674;-68
2021/01/17 22:05:58;;;;;;;21.60;9.50;;;;;;;-13.63;64.26;99482.20;1732691;81;21335;-66
2021/01/17 22:08:29;;;;;;;20.37;9.68;;;;;;;-13.57;64.20;99478.11;1742115;82;21319;-66
2021/01/17 22:10:56;;;;;;;25.68;10.93;;;;;;;-13.55;64.17;99475.63;1713608;81;21615;-67
2021/01/17 22:13:24;;;;;;;23.65;10.35;;;;;;;-13.56;64.15;99466.27;1716281;82;21580;-66
2021/01/17 22:15:51;;;;;;;19.07;9.35;;;;;;;-13.56;64.26;99468.81;1733812;81;21258;-67
2021/01/17 22:18:19;;;;;;;24.07;9.73;;;;;;;-13.54;64.28;99464.20;1718902;82;21127;-67
2021/01/17 22:20:46;;;;;;;20.20;9.78;;;;;;;-13.47;64.18;99474.52;1725455;81;21317;-66
2021/01/17 22:23:13;;;;;;;24.90;10.95;;;;;;;-13.43;64.16;99473.33;1718100;81;21178;-67
2021/01/17 22:25:41;;;;;;;24.87;10.08;;;;;;;-13.40;64.12;99468.33;1711453;82;21179;-66
2021/01/17 22:28:08;;;;;;;24.32;10.10;;;;;;;-13.38;63.89;99463.27;1739902;81;21167;-66
2021/01/17 22:30:35;;;;;;;24.95;10.65;;;;;;;-13.42;63.68;99463.61;1747797;82;21309;-66
2021/01/17 22:33:03;;;;;;;21.52;10.20;;;;;;;-13.46;63.62;99461.83;1708668;83;21330;-66
2021/01/17 22:35:32;;;;;;;21.85;10.43;;;;;;;-13.49;63.53;99472.34;1743849;82;21159;-68
2021/01/17 22:37:59;;;;;;;31.42;11.35;;;;;;;-13.53;63.40;99472.69;1732748;81;21258;-68
2021/01/17 22:40:26;;;;;;;32.25;12.03;;;;;;;-13.55;63.46;99474.35;1744499;82;21611;-68
2021/01/17 22:42:53;;;;;;;40.98;14.75;;;;;;;-13.60;63.41;99464.48;1744655;82;21175;-66
2021/01/17 22:45:21;;;;;;;37.93;14.78;;;;;;;-13.65;63.54;99468.61;1733210;81;21265;-66
2021/01/17 22:47:48;;;;;;;45.65;14.50;;;;;;;-13.72;63.68;99471.02;1732453;82;21197;-66
2021/01/17 22:50:15;;;;;;;42.88;14.23;;;;;;;-13.74;63.87;99476.47;1733185;81;21781;-65
2021/01/17 22:52:44;;;;;;;35.88;13.38;;;;;;;-13.68;64.06;99470.25;1716530;83;21339;-66
2021/01/17 22:55:12;;;;;;;35.48;14.47;;;;;;;-13.66;64.04;99467.73;1740304;82;21182;-66
2021/01/17 22:57:39;;;;;;;38.58;13.55;;;;;;;-13.59;64.17;99463.25;1716060;83;21229;-67
2021/01/17 23:00:16;;;;;;;35.40;14.43;;;;;;;-13.57;63.81;99475.56;1717503;82;21653;-67
2021/01/17 23:02:53;;;;;;;38.13;16.10;;;;;;;-13.58;63.91;99473.88;1709461;83;21203;-68
2021/01/17 23:05:21;;;;;;;41.63;15.78;;;;;;;-13.58;64.01;99467.91;1710079;83;21642;-67
2021/01/17 23:07:52;;;;;;;41.88;18.10;;;;;;;-13.61;64.05;99471.67;1679313;84;21186;-67
2021/01/17 23:10:21;;;;;;;51.42;20.17;;;;;;;-13.67;64.18;99473.64;1676361;84;21344;-68
2021/01/17 23:12:49;;;;;;;51.48;20.15;;;;;;;-13.70;64.51;99479.52;1686319;84;21202;-66
2021/01/17 23:15:17;;;;;;;41.50;16.87;;;;;;;-13.74;64.48;99480.28;1704537;84;21651;-66
2021/01/17 23:17:44;;;;;;;46.40;19.35;;;;;;;-13.71;64.63;99487.96;1702523;84;21171;-66
2021/01/17 23:20:14;;;;;;;46.00;20.37;;;;;;;-13.68;64.80;99471.52;1686871;84;21506;-66
2021/01/17 23:22:41;;;;;;;48.28;19.37;;;;;;;-13.65;64.76;99468.61;1704424;84;21190;-66
2021/01/17 23:25:10;;;;;;;54.55;21.62;;;;;;;-13.65;64.60;99478.36;1699649;84;21311;-66
2021/01/17 23:27:37;;;;;;;50.35;21.17;;;;;;;-13.66;64.64;99480.45;1676454;85;21626;-67
2021/01/17 23:30:08;;;;;;;51.30;20.45;;;;;;;-13.62;64.79;99479.69;1697712;84;21131;-66
2021/01/17 23:32:35;;;;;;;48.38;18.75;;;;;;;-13.56;64.79;99484.07;1704603;84;21210;-67
2021/01/17 23:35:03;;;;;;;51.85;20.02;;;;;;;-13.52;64.66;99474.41;1700931;84;22397;-66
2021/01/17 23:37:30;;;;;;;48.48;20.50;;;;;;;-13.55;64.65;99481.55;1688902;84;21191;-66
2021/01/17 23:39:58;;;;;;;56.80;20.97;;;;;;;-13.56;64.61;99473.90;1682803;84;21166;-66
2021/01/17 23:42:26;;;;;;;42.30;18.15;;;;;;;-13.58;64.70;99481.50;1702199;84;21568;-66
2021/01/17 23:44:53;;;;;;;44.20;17.80;;;;;;;-13.57;64.74;99487.44;1676541;84;21654;-67
2021/01/17 23:47:20;;;;;;;35.35;15.15;;;;;;;-13.55;64.49;99481.98;1701140;84;21182;-67
2021/01/17 23:49:48;;;;;;;25.90;12.30;;;;;;;-13.58;64.20;99480.63;1699018;82;21162;-66
2021/01/17 23:52:15;;;;;;;30.32;13.40;;;;;;;-13.72;63.94;99485.00;1707968;82;21173;-67
2021/01/17 23:54:45;;;;;;;30.10;13.28;;;;;;;-13.83;64.07;99488.97;1727491;82;21158;-67
2021/01/17 23:57:12;;;;;;;31.20;13.05;;;;;;;-13.90;64.09;99484.55;1730366;82;21324;-67
2021/01/17 23:59:41;;;;;;;30.88;12.55;;;;;;;-13.94;64.36;99490.39;1736245;82;21222;-67
